Rockingham, United Kingdom
Current Conditions -  °F | °C
As of 5:50 PM on Thursday 30 Oct 2014 (Local Time) from EGXT Reporting Station
Broken Clouds Broken Clouds  
Wind Chill: 59°   Ceiling: 4100
Heat Index: 59°   Visibility: 5mi
Dew Point: 57°   Wind: 7mph
Humidity: 94%   Direction: 180°S
Pressure: 30.03"   Gusts: NA
Location:  52.52°N, 0.72°W
Report Text: EGXT 301750Z AUTO 18006KT 8000 // BKN041/// 15/14 Q1017
Loading
Personal Weather Stations






























Interactive Weather Map
Tropical Storm Tracking
New forecast layout! Learn more

10-Day Weather Forecast

Advertisements
Track Severe Weather on mobile